sensor_id;sensor_type;location;lat;lon;timestamp;P1;durP1;ratioP1;P2;durP2;ratioP2
43756;SDS011;73222;41.866;12.462;2024-02-28T00:01:57;13.52;;;5.15;;
43756;SDS011;73222;41.866;12.462;2024-02-28T00:04:23;19.02;;;5.88;;
43756;SDS011;73222;41.866;12.462;2024-02-28T00:06:49;9.48;;;5.00;;
43756;SDS011;73222;41.866;12.462;2024-02-28T00:09:15;14.07;;;5.50;;
43756;SDS011;73222;41.866;12.462;2024-02-28T00:11:42;13.80;;;5.28;;
43756;SDS011;73222;41.866;12.462;2024-02-28T00:14:09;14.02;;;6.10;;
43756;SDS011;73222;41.866;12.462;2024-02-28T00:16:35;15.18;;;5.85;;
43756;SDS011;73222;41.866;12.462;2024-02-28T00:19:01;15.55;;;6.60;;
43756;SDS011;73222;41.866;12.462;2024-02-28T00:21:26;17.35;;;6.28;;
43756;SDS011;73222;41.866;12.462;2024-02-28T00:23:52;13.00;;;5.70;;
43756;SDS011;73222;41.866;12.462;2024-02-28T00:26:17;16.88;;;6.13;;
43756;SDS011;73222;41.866;12.462;2024-02-28T00:28:42;13.50;;;5.63;;
43756;SDS011;73222;41.866;12.462;2024-02-28T00:31:08;12.65;;;5.03;;
43756;SDS011;73222;41.866;12.462;2024-02-28T00:33:33;12.70;;;5.32;;
43756;SDS011;73222;41.866;12.462;2024-02-28T00:35:58;16.17;;;5.32;;
43756;SDS011;73222;41.866;12.462;2024-02-28T00:38:24;16.17;;;5.50;;
43756;SDS011;73222;41.866;12.462;2024-02-28T00:40:49;17.83;;;4.93;;
43756;SDS011;73222;41.866;12.462;2024-02-28T00:43:14;14.98;;;6.15;;
43756;SDS011;73222;41.866;12.462;2024-02-28T00:45:40;14.32;;;5.10;;
43756;SDS011;73222;41.866;12.462;2024-02-28T00:48:05;16.55;;;6.60;;
43756;SDS011;73222;41.866;12.462;2024-02-28T00:50:31;20.05;;;6.97;;
43756;SDS011;73222;41.866;12.462;2024-02-28T00:52:56;12.93;;;5.65;;
43756;SDS011;73222;41.866;12.462;2024-02-28T00:55:22;17.65;;;5.53;;
43756;SDS011;73222;41.866;12.462;2024-02-28T00:57:47;16.00;;;4.85;;
43756;SDS011;73222;41.866;12.462;2024-02-28T01:00:12;11.38;;;5.03;;
43756;SDS011;73222;41.866;12.462;2024-02-28T01:02:39;13.85;;;4.65;;
43756;SDS011;73222;41.866;12.462;2024-02-28T01:05:06;10.32;;;4.47;;
43756;SDS011;73222;41.866;12.462;2024-02-28T01:07:32;21.10;;;5.07;;
43756;SDS011;73222;41.866;12.462;2024-02-28T01:09:57;11.95;;;4.35;;
43756;SDS011;73222;41.866;12.462;2024-02-28T01:12:23;11.90;;;5.15;;
43756;SDS011;73222;41.866;12.462;2024-02-28T01:14:48;17.10;;;4.57;;
43756;SDS011;73222;41.866;12.462;2024-02-28T01:17:13;12.07;;;3.97;;
43756;SDS011;73222;41.866;12.462;2024-02-28T01:19:39;13.40;;;3.83;;
43756;SDS011;73222;41.866;12.462;2024-02-28T01:22:04;15.80;;;4.65;;
43756;SDS011;73222;41.866;12.462;2024-02-28T01:24:29;17.38;;;3.83;;
43756;SDS011;73222;41.866;12.462;2024-02-28T01:26:55;13.18;;;4.15;;
43756;SDS011;73222;41.866;12.462;2024-02-28T01:29:20;9.88;;;4.43;;
43756;SDS011;73222;41.866;12.462;2024-02-28T01:31:45;19.25;;;5.07;;
43756;SDS011;73222;41.866;12.462;2024-02-28T01:34:11;20.52;;;4.43;;
43756;SDS011;73222;41.866;12.462;2024-02-28T01:36:36;11.07;;;4.53;;
43756;SDS011;73222;41.866;12.462;2024-02-28T01:39:01;14.35;;;5.07;;
43756;SDS011;73222;41.866;12.462;2024-02-28T01:41:28;17.60;;;4.18;;
43756;SDS011;73222;41.866;12.462;2024-02-28T01:43:53;16.95;;;4.32;;
43756;SDS011;73222;41.866;12.462;2024-02-28T01:46:28;14.82;;;4.10;;
43756;SDS011;73222;41.866;12.462;2024-02-28T01:51:20;14.13;;;4.18;;
43756;SDS011;73222;41.866;12.462;2024-02-28T01:53:48;17.65;;;4.05;;
43756;SDS011;73222;41.866;12.462;2024-02-28T01:56:16;10.88;;;3.58;;
43756;SDS011;73222;41.866;12.462;2024-02-28T01:58:46;16.83;;;3.97;;
43756;SDS011;73222;41.866;12.462;2024-02-28T02:01:16;16.67;;;3.70;;
43756;SDS011;73222;41.866;12.462;2024-02-28T02:03:43;11.90;;;3.70;;
43756;SDS011;73222;41.866;12.462;2024-02-28T02:06:08;13.73;;;4.38;;
43756;SDS011;73222;41.866;12.462;2024-02-28T02:08:36;14.20;;;3.80;;
43756;SDS011;73222;41.866;12.462;2024-02-28T02:11:02;14.48;;;4.75;;
43756;SDS011;73222;41.866;12.462;2024-02-28T02:13:27;16.30;;;3.72;;
43756;SDS011;73222;41.866;12.462;2024-02-28T02:15:53;16.42;;;4.50;;
43756;SDS011;73222;41.866;12.462;2024-02-28T02:18:18;17.13;;;3.97;;
43756;SDS011;73222;41.866;12.462;2024-02-28T02:20:44;15.93;;;4.28;;
43756;SDS011;73222;41.866;12.462;2024-02-28T02:23:14;16.77;;;3.85;;
43756;SDS011;73222;41.866;12.462;2024-02-28T02:25:43;16.48;;;3.83;;
43756;SDS011;73222;41.866;12.462;2024-02-28T02:28:12;19.17;;;4.53;;
43756;SDS011;73222;41.866;12.462;2024-02-28T02:30:37;14.05;;;5.18;;
43756;SDS011;73222;41.866;12.462;2024-02-28T02:33:04;20.40;;;3.83;;
43756;SDS011;73222;41.866;12.462;2024-02-28T02:35:30;15.98;;;4.25;;
43756;SDS011;73222;41.866;12.462;2024-02-28T02:37:55;16.95;;;4.25;;
43756;SDS011;73222;41.866;12.462;2024-02-28T02:40:21;27.30;;;6.45;;
43756;SDS011;73222;41.866;12.462;2024-02-28T02:42:46;13.93;;;3.95;;
43756;SDS011;73222;41.866;12.462;2024-02-28T02:45:11;19.98;;;4.10;;
43756;SDS011;73222;41.866;12.462;2024-02-28T02:47:37;17.98;;;4.75;;
43756;SDS011;73222;41.866;12.462;2024-02-28T02:50:02;15.90;;;4.20;;
43756;SDS011;73222;41.866;12.462;2024-02-28T02:52:28;16.50;;;5.03;;
43756;SDS011;73222;41.866;12.462;2024-02-28T02:54:53;17.70;;;3.80;;
43756;SDS011;73222;41.866;12.462;2024-02-28T02:57:19;13.48;;;3.97;;
43756;SDS011;73222;41.866;12.462;2024-02-28T02:59:45;20.45;;;4.13;;
43756;SDS011;73222;41.866;12.462;2024-02-28T03:02:10;21.75;;;4.30;;
43756;SDS011;73222;41.866;12.462;2024-02-28T03:04:35;22.50;;;4.85;;
43756;SDS011;73222;41.866;12.462;2024-02-28T03:07:01;16.75;;;4.70;;
43756;SDS011;73222;41.866;12.462;2024-02-28T03:09:26;25.98;;;4.88;;
43756;SDS011;73222;41.866;12.462;2024-02-28T03:11:51;25.70;;;4.57;;
43756;SDS011;73222;41.866;12.462;2024-02-28T03:14:17;18.90;;;3.83;;
43756;SDS011;73222;41.866;12.462;2024-02-28T03:16:44;16.63;;;3.70;;
43756;SDS011;73222;41.866;12.462;2024-02-28T03:19:10;17.25;;;3.88;;
43756;SDS011;73222;41.866;12.462;2024-02-28T03:21:35;16.10;;;5.03;;
43756;SDS011;73222;41.866;12.462;2024-02-28T03:24:01;18.38;;;5.45;;
43756;SDS011;73222;41.866;12.462;2024-02-28T03:26:27;21.05;;;4.40;;
43756;SDS011;73222;41.866;12.462;2024-02-28T03:28:52;13.45;;;6.57;;
43756;SDS011;73222;41.866;12.462;2024-02-28T03:31:18;14.20;;;4.53;;
43756;SDS011;73222;41.866;12.462;2024-02-28T03:33:43;20.88;;;4.18;;
43756;SDS011;73222;41.866;12.462;2024-02-28T03:36:08;17.02;;;3.78;;
43756;SDS011;73222;41.866;12.462;2024-02-28T03:38:34;16.23;;;3.90;;
43756;SDS011;73222;41.866;12.462;2024-02-28T03:40:59;17.48;;;4.72;;
43756;SDS011;73222;41.866;12.462;2024-02-28T03:43:24;22.13;;;5.28;;
43756;SDS011;73222;41.866;12.462;2024-02-28T03:45:50;25.17;;;4.63;;
43756;SDS011;73222;41.866;12.462;2024-02-28T03:48:15;18.20;;;4.38;;
43756;SDS011;73222;41.866;12.462;2024-02-28T03:50:41;26.63;;;4.63;;
43756;SDS011;73222;41.866;12.462;2024-02-28T03:53:06;24.73;;;5.95;;
43756;SDS011;73222;41.866;12.462;2024-02-28T03:55:32;23.05;;;4.40;;
43756;SDS011;73222;41.866;12.462;2024-02-28T03:57:57;19.23;;;4.20;;
43756;SDS011;73222;41.866;12.462;2024-02-28T04:00:23;21.27;;;4.03;;
43756;SDS011;73222;41.866;12.462;2024-02-28T04:02:50;25.65;;;4.45;;
43756;SDS011;73222;41.866;12.462;2024-02-28T04:05:16;22.25;;;4.53;;
43756;SDS011;73222;41.866;12.462;2024-02-28T04:07:42;21.77;;;5.88;;
43756;SDS011;73222;41.866;12.462;2024-02-28T04:10:08;19.60;;;3.97;;
43756;SDS011;73222;41.866;12.462;2024-02-28T04:12:33;15.60;;;3.83;;
43756;SDS011;73222;41.866;12.462;2024-02-28T04:14:59;21.33;;;5.63;;
43756;SDS011;73222;41.866;12.462;2024-02-28T04:17:24;26.50;;;5.70;;
43756;SDS011;73222;41.866;12.462;2024-02-28T04:19:49;20.27;;;4.63;;
43756;SDS011;73222;41.866;12.462;2024-02-28T04:22:15;21.88;;;4.20;;
43756;SDS011;73222;41.866;12.462;2024-02-28T04:24:40;15.15;;;4.55;;
43756;SDS011;73222;41.866;12.462;2024-02-28T04:27:05;21.58;;;4.75;;
43756;SDS011;73222;41.866;12.462;2024-02-28T04:29:31;24.40;;;5.70;;
43756;SDS011;73222;41.866;12.462;2024-02-28T04:31:56;21.70;;;5.57;;
43756;SDS011;73222;41.866;12.462;2024-02-28T04:34:21;22.05;;;4.63;;
43756;SDS011;73222;41.866;12.462;2024-02-28T04:36:47;24.00;;;5.20;;
43756;SDS011;73222;41.866;12.462;2024-02-28T04:39:12;23.45;;;5.22;;
43756;SDS011;73222;41.866;12.462;2024-02-28T04:41:37;18.77;;;4.85;;
43756;SDS011;73222;41.866;12.462;2024-02-28T04:44:03;18.55;;;4.93;;
43756;SDS011;73222;41.866;12.462;2024-02-28T04:46:28;22.38;;;5.90;;
43756;SDS011;73222;41.866;12.462;2024-02-28T04:48:54;21.20;;;4.72;;
43756;SDS011;73222;41.866;12.462;2024-02-28T04:51:19;19.85;;;4.38;;
43756;SDS011;73222;41.866;12.462;2024-02-28T04:53:44;27.27;;;5.22;;
43756;SDS011;73222;41.866;12.462;2024-02-28T04:56:10;30.65;;;5.10;;
43756;SDS011;73222;41.866;12.462;2024-02-28T04:58:36;29.48;;;6.10;;
43756;SDS011;73222;41.866;12.462;2024-02-28T05:01:01;18.35;;;5.68;;
43756;SDS011;73222;41.866;12.462;2024-02-28T05:03:28;26.10;;;4.60;;
43756;SDS011;73222;41.866;12.462;2024-02-28T05:05:54;18.35;;;4.10;;
43756;SDS011;73222;41.866;12.462;2024-02-28T05:08:19;21.85;;;4.82;;
43756;SDS011;73222;41.866;12.462;2024-02-28T05:10:45;21.30;;;4.65;;
43756;SDS011;73222;41.866;12.462;2024-02-28T05:13:11;25.35;;;5.47;;
43756;SDS011;73222;41.866;12.462;2024-02-28T05:15:36;14.77;;;4.28;;
43756;SDS011;73222;41.866;12.462;2024-02-28T05:18:04;22.90;;;4.57;;
43756;SDS011;73222;41.866;12.462;2024-02-28T05:20:29;25.05;;;4.82;;
43756;SDS011;73222;41.866;12.462;2024-02-28T05:22:55;22.00;;;4.82;;
43756;SDS011;73222;41.866;12.462;2024-02-28T05:25:20;24.10;;;5.32;;
43756;SDS011;73222;41.866;12.462;2024-02-28T05:27:45;22.55;;;5.25;;
43756;SDS011;73222;41.866;12.462;2024-02-28T05:30:11;22.50;;;4.72;;
43756;SDS011;73222;41.866;12.462;2024-02-28T05:32:36;18.83;;;5.05;;
43756;SDS011;73222;41.866;12.462;2024-02-28T05:35:02;16.55;;;4.68;;
43756;SDS011;73222;41.866;12.462;2024-02-28T05:37:29;28.88;;;6.13;;
43756;SDS011;73222;41.866;12.462;2024-02-28T05:39:54;20.60;;;4.88;;
43756;SDS011;73222;41.866;12.462;2024-02-28T05:42:20;22.58;;;7.00;;
43756;SDS011;73222;41.866;12.462;2024-02-28T05:44:49;22.48;;;5.82;;
43756;SDS011;73222;41.866;12.462;2024-02-28T05:47:15;22.08;;;4.93;;
43756;SDS011;73222;41.866;12.462;2024-02-28T05:49:41;18.98;;;5.45;;
43756;SDS011;73222;41.866;12.462;2024-02-28T05:52:06;19.73;;;5.13;;
43756;SDS011;73222;41.866;12.462;2024-02-28T05:54:32;24.15;;;5.25;;
43756;SDS011;73222;41.866;12.462;2024-02-28T05:56:59;23.33;;;5.65;;
43756;SDS011;73222;41.866;12.462;2024-02-28T05:59:25;24.65;;;6.72;;
43756;SDS011;73222;41.866;12.462;2024-02-28T06:01:50;25.08;;;5.03;;
43756;SDS011;73222;41.866;12.462;2024-02-28T06:04:15;33.22;;;7.68;;
43756;SDS011;73222;41.866;12.462;2024-02-28T06:06:41;19.20;;;5.40;;
43756;SDS011;73222;41.866;12.462;2024-02-28T06:09:07;20.83;;;5.18;;
43756;SDS011;73222;41.866;12.462;2024-02-28T06:11:32;18.90;;;5.18;;
43756;SDS011;73222;41.866;12.462;2024-02-28T06:13:58;25.38;;;6.25;;
43756;SDS011;73222;41.866;12.462;2024-02-28T06:16:24;28.42;;;5.40;;
43756;SDS011;73222;41.866;12.462;2024-02-28T06:18:49;26.70;;;5.82;;
43756;SDS011;73222;41.866;12.462;2024-02-28T06:21:14;20.25;;;4.47;;
43756;SDS011;73222;41.866;12.462;2024-02-28T06:23:40;25.88;;;5.40;;
43756;SDS011;73222;41.866;12.462;2024-02-28T06:26:05;25.98;;;5.57;;
43756;SDS011;73222;41.866;12.462;2024-02-28T06:28:31;21.67;;;6.15;;
43756;SDS011;73222;41.866;12.462;2024-02-28T06:30:57;29.50;;;7.57;;
43756;SDS011;73222;41.866;12.462;2024-02-28T06:33:23;27.13;;;6.38;;
43756;SDS011;73222;41.866;12.462;2024-02-28T06:35:48;23.15;;;6.25;;
43756;SDS011;73222;41.866;12.462;2024-02-28T06:38:13;28.05;;;5.38;;
43756;SDS011;73222;41.866;12.462;2024-02-28T06:40:39;26.40;;;5.97;;
43756;SDS011;73222;41.866;12.462;2024-02-28T06:43:05;22.55;;;5.38;;
43756;SDS011;73222;41.866;12.462;2024-02-28T06:45:31;20.45;;;6.70;;
43756;SDS011;73222;41.866;12.462;2024-02-28T06:47:57;23.85;;;5.22;;
43756;SDS011;73222;41.866;12.462;2024-02-28T06:50:22;29.13;;;5.28;;
43756;SDS011;73222;41.866;12.462;2024-02-28T06:52:48;22.42;;;5.95;;
43756;SDS011;73222;41.866;12.462;2024-02-28T06:55:13;22.60;;;5.05;;
43756;SDS011;73222;41.866;12.462;2024-02-28T06:57:42;24.83;;;6.28;;
43756;SDS011;73222;41.866;12.462;2024-02-28T07:00:09;21.90;;;6.07;;
43756;SDS011;73222;41.866;12.462;2024-02-28T07:02:36;22.20;;;6.00;;
43756;SDS011;73222;41.866;12.462;2024-02-28T07:05:02;23.70;;;5.38;;
43756;SDS011;73222;41.866;12.462;2024-02-28T07:07:29;27.63;;;7.00;;
43756;SDS011;73222;41.866;12.462;2024-02-28T07:09:55;31.63;;;6.35;;
43756;SDS011;73222;41.866;12.462;2024-02-28T07:12:21;24.92;;;5.97;;
43756;SDS011;73222;41.866;12.462;2024-02-28T07:14:46;25.88;;;7.30;;
43756;SDS011;73222;41.866;12.462;2024-02-28T07:17:12;21.15;;;5.57;;
43756;SDS011;73222;41.866;12.462;2024-02-28T07:19:37;22.40;;;5.82;;
43756;SDS011;73222;41.866;12.462;2024-02-28T07:22:03;35.38;;;7.03;;
43756;SDS011;73222;41.866;12.462;2024-02-28T07:24:30;28.58;;;6.05;;
43756;SDS011;73222;41.866;12.462;2024-02-28T07:26:56;23.50;;;5.65;;
43756;SDS011;73222;41.866;12.462;2024-02-28T07:29:22;32.30;;;5.82;;
43756;SDS011;73222;41.866;12.462;2024-02-28T07:31:49;27.52;;;6.60;;
43756;SDS011;73222;41.866;12.462;2024-02-28T07:34:14;25.38;;;6.50;;
43756;SDS011;73222;41.866;12.462;2024-02-28T07:36:40;27.63;;;6.75;;
43756;SDS011;73222;41.866;12.462;2024-02-28T07:39:05;23.73;;;5.57;;
43756;SDS011;73222;41.866;12.462;2024-02-28T07:41:31;22.60;;;5.57;;
43756;SDS011;73222;41.866;12.462;2024-02-28T07:43:57;26.35;;;5.63;;
43756;SDS011;73222;41.866;12.462;2024-02-28T07:46:22;41.85;;;7.72;;
43756;SDS011;73222;41.866;12.462;2024-02-28T07:48:48;18.95;;;5.35;;
43756;SDS011;73222;41.866;12.462;2024-02-28T07:51:13;32.03;;;6.38;;
43756;SDS011;73222;41.866;12.462;2024-02-28T07:53:40;22.08;;;5.72;;
43756;SDS011;73222;41.866;12.462;2024-02-28T07:56:05;26.58;;;6.05;;
43756;SDS011;73222;41.866;12.462;2024-02-28T07:58:31;23.70;;;5.60;;
43756;SDS011;73222;41.866;12.462;2024-02-28T08:00:56;28.60;;;6.78;;
43756;SDS011;73222;41.866;12.462;2024-02-28T08:03:22;21.42;;;5.22;;
43756;SDS011;73222;41.866;12.462;2024-02-28T08:05:47;22.98;;;5.78;;
43756;SDS011;73222;41.866;12.462;2024-02-28T08:08:13;28.38;;;6.43;;
43756;SDS011;73222;41.866;12.462;2024-02-28T08:10:39;23.30;;;5.85;;
43756;SDS011;73222;41.866;12.462;2024-02-28T08:13:05;18.40;;;5.57;;
43756;SDS011;73222;41.866;12.462;2024-02-28T08:15:30;27.20;;;6.30;;
43756;SDS011;73222;41.866;12.462;2024-02-28T08:17:56;28.50;;;6.80;;
43756;SDS011;73222;41.866;12.462;2024-02-28T08:20:22;31.70;;;6.82;;
43756;SDS011;73222;41.866;12.462;2024-02-28T08:22:47;22.20;;;6.07;;
43756;SDS011;73222;41.866;12.462;2024-02-28T08:25:13;37.25;;;6.95;;
43756;SDS011;73222;41.866;12.462;2024-02-28T08:27:39;27.63;;;6.70;;
43756;SDS011;73222;41.866;12.462;2024-02-28T08:30:05;32.67;;;7.05;;
43756;SDS011;73222;41.866;12.462;2024-02-28T08:32:33;34.35;;;7.10;;
43756;SDS011;73222;41.866;12.462;2024-02-28T08:34:59;28.77;;;8.45;;
43756;SDS011;73222;41.866;12.462;2024-02-28T08:37:25;31.45;;;7.03;;
43756;SDS011;73222;41.866;12.462;2024-02-28T08:39:54;27.10;;;6.15;;
43756;SDS011;73222;41.866;12.462;2024-02-28T08:42:22;27.80;;;6.75;;
43756;SDS011;73222;41.866;12.462;2024-02-28T08:44:49;35.58;;;7.10;;
43756;SDS011;73222;41.866;12.462;2024-02-28T08:47:14;24.77;;;6.72;;
43756;SDS011;73222;41.866;12.462;2024-02-28T08:49:40;28.02;;;6.65;;
43756;SDS011;73222;41.866;12.462;2024-02-28T08:52:05;24.63;;;6.93;;
43756;SDS011;73222;41.866;12.462;2024-02-28T08:54:31;33.45;;;7.38;;
43756;SDS011;73222;41.866;12.462;2024-02-28T08:56:56;27.02;;;7.32;;
43756;SDS011;73222;41.866;12.462;2024-02-28T08:59:22;31.10;;;7.50;;
43756;SDS011;73222;41.866;12.462;2024-02-28T09:01:47;29.42;;;6.93;;
43756;SDS011;73222;41.866;12.462;2024-02-28T09:04:14;22.65;;;6.43;;
43756;SDS011;73222;41.866;12.462;2024-02-28T09:06:40;27.70;;;5.95;;
43756;SDS011;73222;41.866;12.462;2024-02-28T09:09:06;32.55;;;6.78;;
43756;SDS011;73222;41.866;12.462;2024-02-28T09:11:31;23.65;;;5.70;;
43756;SDS011;73222;41.866;12.462;2024-02-28T09:13:56;24.23;;;6.30;;
43756;SDS011;73222;41.866;12.462;2024-02-28T09:16:22;20.15;;;6.28;;
43756;SDS011;73222;41.866;12.462;2024-02-28T09:18:47;28.42;;;6.07;;
43756;SDS011;73222;41.866;12.462;2024-02-28T09:21:12;26.20;;;6.93;;
43756;SDS011;73222;41.866;12.462;2024-02-28T09:23:38;21.10;;;5.53;;
43756;SDS011;73222;41.866;12.462;2024-02-28T09:26:03;24.13;;;5.75;;
43756;SDS011;73222;41.866;12.462;2024-02-28T09:28:29;24.17;;;5.50;;
43756;SDS011;73222;41.866;12.462;2024-02-28T09:30:55;32.15;;;6.03;;
43756;SDS011;73222;41.866;12.462;2024-02-28T09:33:20;33.65;;;7.25;;
43756;SDS011;73222;41.866;12.462;2024-02-28T09:35:45;30.10;;;6.97;;
43756;SDS011;73222;41.866;12.462;2024-02-28T09:38:11;28.05;;;5.80;;
43756;SDS011;73222;41.866;12.462;2024-02-28T09:40:36;29.85;;;7.30;;
43756;SDS011;73222;41.866;12.462;2024-02-28T09:43:02;25.42;;;6.00;;
43756;SDS011;73222;41.866;12.462;2024-02-28T09:45:30;25.10;;;5.90;;
43756;SDS011;73222;41.866;12.462;2024-02-28T09:48:00;22.45;;;6.75;;
43756;SDS011;73222;41.866;12.462;2024-02-28T09:50:26;23.98;;;6.00;;
43756;SDS011;73222;41.866;12.462;2024-02-28T09:52:52;30.05;;;6.38;;
43756;SDS011;73222;41.866;12.462;2024-02-28T09:55:19;23.77;;;5.72;;
43756;SDS011;73222;41.866;12.462;2024-02-28T09:57:48;25.25;;;6.05;;
43756;SDS011;73222;41.866;12.462;2024-02-28T10:00:20;32.17;;;5.97;;
43756;SDS011;73222;41.866;12.462;2024-02-28T10:02:47;24.73;;;5.78;;
43756;SDS011;73222;41.866;12.462;2024-02-28T10:05:16;28.20;;;6.60;;
43756;SDS011;73222;41.866;12.462;2024-02-28T10:07:43;27.63;;;7.03;;
43756;SDS011;73222;41.866;12.462;2024-02-28T10:10:10;30.25;;;6.70;;
43756;SDS011;73222;41.866;12.462;2024-02-28T10:12:38;25.23;;;5.95;;
43756;SDS011;73222;41.866;12.462;2024-02-28T10:15:05;28.77;;;6.63;;
43756;SDS011;73222;41.866;12.462;2024-02-28T10:17:31;28.67;;;6.97;;
43756;SDS011;73222;41.866;12.462;2024-02-28T10:19:58;26.33;;;6.55;;
43756;SDS011;73222;41.866;12.462;2024-02-28T10:22:24;23.45;;;5.68;;
43756;SDS011;73222;41.866;12.462;2024-02-28T10:24:56;26.35;;;6.20;;
43756;SDS011;73222;41.866;12.462;2024-02-28T10:27:22;23.30;;;5.43;;
43756;SDS011;73222;41.866;12.462;2024-02-28T10:29:48;20.83;;;6.50;;
43756;SDS011;73222;41.866;12.462;2024-02-28T10:32:13;25.75;;;5.95;;
43756;SDS011;73222;41.866;12.462;2024-02-28T10:34:39;22.65;;;6.07;;
43756;SDS011;73222;41.866;12.462;2024-02-28T10:37:06;25.55;;;6.28;;
43756;SDS011;73222;41.866;12.462;2024-02-28T10:39:32;25.40;;;5.47;;
43756;SDS011;73222;41.866;12.462;2024-02-28T10:41:58;29.70;;;6.70;;
43756;SDS011;73222;41.866;12.462;2024-02-28T10:44:26;28.10;;;5.90;;
43756;SDS011;73222;41.866;12.462;2024-02-28T10:46:53;32.95;;;6.10;;
43756;SDS011;73222;41.866;12.462;2024-02-28T10:49:19;34.47;;;6.63;;
43756;SDS011;73222;41.866;12.462;2024-02-28T10:51:45;27.80;;;5.75;;
43756;SDS011;73222;41.866;12.462;2024-02-28T10:54:13;17.65;;;5.72;;
43756;SDS011;73222;41.866;12.462;2024-02-28T10:56:40;25.08;;;6.32;;
43756;SDS011;73222;41.866;12.462;2024-02-28T10:59:07;30.35;;;6.05;;
43756;SDS011;73222;41.866;12.462;2024-02-28T11:01:38;28.60;;;6.53;;
43756;SDS011;73222;41.866;12.462;2024-02-28T11:04:07;26.30;;;6.55;;
43756;SDS011;73222;41.866;12.462;2024-02-28T11:06:33;33.60;;;6.15;;
43756;SDS011;73222;41.866;12.462;2024-02-28T11:09:02;19.67;;;6.45;;
43756;SDS011;73222;41.866;12.462;2024-02-28T11:11:31;21.52;;;5.97;;
43756;SDS011;73222;41.866;12.462;2024-02-28T11:13:57;29.95;;;7.75;;
43756;SDS011;73222;41.866;12.462;2024-02-28T11:18:51;25.85;;;7.13;;
43756;SDS011;73222;41.866;12.462;2024-02-28T11:21:17;24.23;;;7.43;;
43756;SDS011;73222;41.866;12.462;2024-02-28T11:23:45;24.15;;;6.57;;
43756;SDS011;73222;41.866;12.462;2024-02-28T11:26:14;21.05;;;6.38;;
43756;SDS011;73222;41.866;12.462;2024-02-28T11:28:40;26.90;;;6.60;;
43756;SDS011;73222;41.866;12.462;2024-02-28T11:31:06;27.15;;;6.82;;
43756;SDS011;73222;41.866;12.462;2024-02-28T11:33:31;25.35;;;7.00;;
43756;SDS011;73222;41.866;12.462;2024-02-28T11:35:59;22.20;;;6.38;;
43756;SDS011;73222;41.866;12.462;2024-02-28T11:38:25;31.45;;;6.80;;
43756;SDS011;73222;41.866;12.462;2024-02-28T11:40:51;25.50;;;6.38;;
43756;SDS011;73222;41.866;12.462;2024-02-28T11:43:17;17.95;;;6.25;;
43756;SDS011;73222;41.866;12.462;2024-02-28T11:45:43;23.30;;;7.05;;
43756;SDS011;73222;41.866;12.462;2024-02-28T11:48:08;25.27;;;5.57;;
43756;SDS011;73222;41.866;12.462;2024-02-28T11:50:34;28.38;;;5.85;;
43756;SDS011;73222;41.866;12.462;2024-02-28T11:53:02;23.63;;;6.13;;
43756;SDS011;73222;41.866;12.462;2024-02-28T11:55:29;20.92;;;6.18;;
43756;SDS011;73222;41.866;12.462;2024-02-28T11:57:55;21.63;;;5.68;;
43756;SDS011;73222;41.866;12.462;2024-02-28T12:00:20;23.75;;;6.63;;
43756;SDS011;73222;41.866;12.462;2024-02-28T12:02:47;23.58;;;6.22;;
43756;SDS011;73222;41.866;12.462;2024-02-28T12:05:12;22.35;;;6.25;;
43756;SDS011;73222;41.866;12.462;2024-02-28T12:07:38;26.88;;;6.25;;
43756;SDS011;73222;41.866;12.462;2024-02-28T12:10:04;23.45;;;5.68;;
43756;SDS011;73222;41.866;12.462;2024-02-28T12:12:29;21.98;;;5.43;;
43756;SDS011;73222;41.866;12.462;2024-02-28T12:14:58;22.77;;;6.00;;
43756;SDS011;73222;41.866;12.462;2024-02-28T12:17:25;24.65;;;6.28;;
43756;SDS011;73222;41.866;12.462;2024-02-28T12:19:51;24.98;;;5.55;;
43756;SDS011;73222;41.866;12.462;2024-02-28T12:22:16;23.17;;;5.60;;
43756;SDS011;73222;41.866;12.462;2024-02-28T12:24:42;25.05;;;6.82;;
43756;SDS011;73222;41.866;12.462;2024-02-28T12:27:07;21.88;;;5.97;;
43756;SDS011;73222;41.866;12.462;2024-02-28T12:29:32;31.33;;;6.63;;
43756;SDS011;73222;41.866;12.462;2024-02-28T12:31:58;21.63;;;5.80;;
43756;SDS011;73222;41.866;12.462;2024-02-28T12:34:23;26.10;;;6.35;;
43756;SDS011;73222;41.866;12.462;2024-02-28T12:36:49;20.52;;;5.47;;
43756;SDS011;73222;41.866;12.462;2024-02-28T12:39:14;21.15;;;5.60;;
43756;SDS011;73222;41.866;12.462;2024-02-28T12:41:40;21.27;;;5.53;;
43756;SDS011;73222;41.866;12.462;2024-02-28T12:44:05;24.63;;;5.13;;
43756;SDS011;73222;41.866;12.462;2024-02-28T12:46:32;24.40;;;5.10;;
43756;SDS011;73222;41.866;12.462;2024-02-28T12:48:58;19.17;;;5.90;;
43756;SDS011;73222;41.866;12.462;2024-02-28T12:51:37;22.63;;;5.38;;
43756;SDS011;73222;41.866;12.462;2024-02-28T12:54:11;18.70;;;4.45;;
43756;SDS011;73222;41.866;12.462;2024-02-28T12:56:38;29.85;;;5.63;;
43756;SDS011;73222;41.866;12.462;2024-02-28T12:59:04;20.90;;;5.35;;
43756;SDS011;73222;41.866;12.462;2024-02-28T13:01:32;21.77;;;5.50;;
43756;SDS011;73222;41.866;12.462;2024-02-28T13:03:57;27.40;;;5.57;;
43756;SDS011;73222;41.866;12.462;2024-02-28T13:06:23;18.98;;;5.85;;
43756;SDS011;73222;41.866;12.462;2024-02-28T13:08:48;25.05;;;6.53;;
43756;SDS011;73222;41.866;12.462;2024-02-28T13:11:17;21.25;;;5.60;;
43756;SDS011;73222;41.866;12.462;2024-02-28T13:13:44;27.20;;;5.47;;
43756;SDS011;73222;41.866;12.462;2024-02-28T13:16:10;21.58;;;4.65;;
43756;SDS011;73222;41.866;12.462;2024-02-28T13:18:35;19.90;;;6.43;;
43756;SDS011;73222;41.866;12.462;2024-02-28T13:21:00;19.42;;;5.78;;
43756;SDS011;73222;41.866;12.462;2024-02-28T13:23:26;23.58;;;4.95;;
43756;SDS011;73222;41.866;12.462;2024-02-28T13:25:51;27.25;;;5.63;;
43756;SDS011;73222;41.866;12.462;2024-02-28T13:28:17;23.63;;;5.50;;
43756;SDS011;73222;41.866;12.462;2024-02-28T13:30:42;20.70;;;5.18;;
43756;SDS011;73222;41.866;12.462;2024-02-28T13:33:08;26.80;;;4.97;;
43756;SDS011;73222;41.866;12.462;2024-02-28T13:35:33;35.95;;;6.40;;
43756;SDS011;73222;41.866;12.462;2024-02-28T13:37:58;19.90;;;5.30;;
43756;SDS011;73222;41.866;12.462;2024-02-28T13:40:25;19.40;;;5.03;;
43756;SDS011;73222;41.866;12.462;2024-02-28T13:42:52;22.58;;;5.13;;
43756;SDS011;73222;41.866;12.462;2024-02-28T13:45:17;21.50;;;5.47;;
43756;SDS011;73222;41.866;12.462;2024-02-28T13:47:43;20.67;;;5.30;;
43756;SDS011;73222;41.866;12.462;2024-02-28T13:50:08;24.92;;;5.35;;
43756;SDS011;73222;41.866;12.462;2024-02-28T13:52:34;23.98;;;6.15;;
43756;SDS011;73222;41.866;12.462;2024-02-28T13:55:00;17.35;;;5.03;;
43756;SDS011;73222;41.866;12.462;2024-02-28T13:57:25;20.95;;;5.20;;
43756;SDS011;73222;41.866;12.462;2024-02-28T13:59:51;19.95;;;5.65;;
43756;SDS011;73222;41.866;12.462;2024-02-28T14:02:19;16.88;;;5.30;;
43756;SDS011;73222;41.866;12.462;2024-02-28T14:04:46;20.35;;;5.65;;
43756;SDS011;73222;41.866;12.462;2024-02-28T14:07:13;27.30;;;7.43;;
43756;SDS011;73222;41.866;12.462;2024-02-28T14:09:41;18.77;;;5.35;;
43756;SDS011;73222;41.866;12.462;2024-02-28T14:12:06;30.65;;;7.15;;
43756;SDS011;73222;41.866;12.462;2024-02-28T14:14:32;25.02;;;5.80;;
43756;SDS011;73222;41.866;12.462;2024-02-28T14:16:57;27.15;;;5.90;;
43756;SDS011;73222;41.866;12.462;2024-02-28T14:19:23;24.45;;;5.45;;